KHZD

Carroll County Airport

Huntingdon, Tennessee, USA
METAR KHZD 191515Z AUTO 19004KT 10SM CLR 27/22 A2996 RMK A01
Observed Flight Rules
Aug-19 @ 15:15 UTC (23 minutes ago) Visual Flight Rules
Wind Visibility Clouds
190° at 4 knots 10 miles
  • Clear skies
Temperatures Readings
Current 27°C / 81°F
Dewpoint 22°C / 72°F
Humidity 74%
Altimeter 29.96" Hg
Pressure 1015 hPa
Elevation 151
METAR KHZD 191515Z AUTO 19004KT 10SM CLR 27/22 A2996 RMK A01
Observed Flight Rules
Aug-19 @ 15:15 UTC
(23 minutes ago)
VFR
Wind Visibility
190° at 4 knots 10 miles
Clouds
  • Clear skies
Temperature Dewpoint
27°C / 81°F 22°C / 72°F
Humidity Altimeter Pressure
74% 29.96" Hg 1015 hPa